Time;durP1;ratioP1;P1;durP2;ratioP2;P2;SDS_P1;SDS_P2;PMS_P1;PMS_P2;Temp;Humidity;BMP_temperature;BMP_pressure;BME280_temperature;BME280_humidity;BME280_pressure;Samples;Min_cycle;Max_cycle;Signal;HPM_P1;HPM_P2
2023/07/10 00:00:18;;;;;;;3.20;3.00;;;23.40;59.50;;;;;;5063196;28;20990;-74
2023/07/10 00:02:45;;;;;;;3.43;2.73;;;23.40;59.50;;;;;;5066191;28;20629;-74
2023/07/10 00:05:17;;;;;;;3.00;2.77;;;23.40;59.60;;;;;;5055318;28;20621;-74
2023/07/10 00:07:44;;;;;;;4.17;3.70;;;23.40;58.60;;;;;;5064960;28;20639;-74
2023/07/10 00:10:14;;;;;;;3.77;3.00;;;23.50;59.00;;;;;;5060737;28;20660;-74
2023/07/10 00:12:43;;;;;;;4.73;3.40;;;23.30;59.50;;;;;;5064184;28;21058;-74
2023/07/10 00:15:20;;;;;;;3.57;3.27;;;23.40;59.30;;;;;;5059826;28;20631;-74
2023/07/10 00:17:47;;;;;;;2.90;2.70;;;23.50;58.40;;;;;;5066455;28;20627;-73
2023/07/10 00:20:16;;;;;;;3.63;3.33;;;23.50;58.70;;;;;;5062170;28;20633;-74
2023/07/10 00:22:43;;;;;;;3.57;2.90;;;23.60;58.10;;;;;;5067030;28;20635;-74
2023/07/10 00:25:15;;;;;;;4.37;3.03;;;23.50;58.00;;;;;;5059949;28;20631;-74
2023/07/10 00:27:42;;;;;;;2.67;2.47;;;23.50;57.70;;;;;;5069563;28;20672;-74
2023/07/10 00:30:18;;;;;;;3.27;2.97;;;23.50;57.40;;;;;;5069070;28;21212;-74
2023/07/10 00:32:45;;;;;;;7.10;3.50;;;23.50;57.00;;;;;;5067283;28;20639;-74
2023/07/10 00:35:16;;;;;;;5.40;3.27;;;23.30;58.60;;;;;;5068092;28;20634;-74
2023/07/10 00:37:45;;;;;;;3.10;2.80;;;22.80;58.80;;;;;;5066376;28;20717;-74
2023/07/10 00:40:23;;;;;;;2.90;2.70;;;22.80;58.70;;;;;;5063463;28;20622;-74
2023/07/10 00:42:56;;;;;;;2.97;2.67;;;23.00;58.20;;;;;;5069116;28;20625;-74
2023/07/10 00:45:22;;;;;;;3.27;2.47;;;23.00;58.70;;;;;;5068410;28;20635;-74
2023/07/10 00:48:04;;;;;;;4.80;3.30;;;23.10;58.60;;;;;;5068967;28;20778;-74
2023/07/10 00:50:37;;;;;;;3.50;3.20;;;23.00;58.80;;;;;;5067171;28;20648;-74
2023/07/10 00:53:11;;;;;;;4.00;3.70;;;22.90;59.20;;;;;;5069788;28;20876;-73
2023/07/10 00:55:43;;;;;;;3.80;3.07;;;22.80;59.60;;;;;;5069502;28;20655;-74
2023/07/10 00:58:22;;;;;;;3.53;3.23;;;22.60;60.00;;;;;;5065496;28;21199;-74
2023/07/10 01:01:04;;;;;;;3.33;3.03;;;22.60;60.60;;;;;;5057064;28;20652;-73
2023/07/10 01:03:31;;;;;;;2.83;2.37;;;22.50;60.70;;;;;;5070137;28;20621;-74
2023/07/10 01:06:01;;;;;;;3.90;3.40;;;22.50;61.70;;;;;;5067058;28;20679;-74
2023/07/10 01:08:28;;;;;;;3.57;2.60;;;22.50;61.10;;;;;;5064284;28;20640;-74
2023/07/10 01:10:57;;;;;;;3.67;3.40;;;22.40;61.50;;;;;;5065624;28;20657;-74
2023/07/10 01:13:24;;;;;;;5.03;3.30;;;22.40;61.30;;;;;;5069211;28;21272;-74
2023/07/10 01:15:52;;;;;;;7.30;3.67;;;22.50;62.00;;;;;;5063421;28;20661;-73
2023/07/10 01:18:24;;;;;;;2.97;2.73;;;22.30;61.20;;;;;;5069113;28;20746;-74
2023/07/10 01:21:06;;;;;;;3.40;3.10;;;22.40;62.20;;;;;;5068236;28;20651;-74
2023/07/10 01:23:34;;;;;;;5.50;3.27;;;22.30;61.20;;;;;;5068585;28;20960;-74
2023/07/10 01:26:03;;;;;;;4.20;3.43;;;22.20;60.80;;;;;;5066634;28;20714;-74
2023/07/10 01:28:33;;;;;;;2.90;2.67;;;22.30;62.80;;;;;;5069238;28;20629;-73
2023/07/10 01:31:03;;;;;;;3.63;3.20;;;22.30;63.30;;;;;;5061832;28;20746;-73
2023/07/10 01:33:39;;;;;;;3.60;3.23;;;22.20;62.90;;;;;;5062814;28;20674;-74
2023/07/10 01:36:11;;;;;;;5.10;3.17;;;22.20;63.20;;;;;;5068127;28;20655;-74
2023/07/10 01:38:44;;;;;;;3.67;3.30;;;22.20;62.90;;;;;;5063121;28;20631;-74
2023/07/10 01:41:29;;;;;;;3.00;2.80;;;22.10;63.50;;;;;;5057567;28;21255;-74
2023/07/10 01:43:57;;;;;;;3.67;3.33;;;22.10;64.40;;;;;;5061173;28;20678;-74
2023/07/10 01:46:27;;;;;;;3.30;3.00;;;22.10;63.30;;;;;;5069251;28;20673;-74
2023/07/10 01:48:58;;;;;;;3.60;3.23;;;22.10;63.90;;;;;;5062431;28;20631;-73
2023/07/10 01:51:27;;;;;;;5.20;3.03;;;22.10;64.00;;;;;;5063677;28;20682;-74
2023/07/10 01:53:54;;;;;;;3.97;3.57;;;22.10;64.80;;;;;;5060330;28;20630;-74
2023/07/10 01:56:23;;;;;;;3.50;3.20;;;22.10;65.90;;;;;;5065657;28;20662;-74
2023/07/10 01:58:50;;;;;;;4.77;3.50;;;22.10;66.40;;;;;;5060248;28;20636;-73
2023/07/10 02:01:17;;;;;;;3.27;3.07;;;22.10;65.80;;;;;;5069167;28;20659;-74
2023/07/10 02:03:44;;;;;;;4.07;3.10;;;22.00;66.40;;;;;;5064644;28;20660;-74
2023/07/10 02:06:11;;;;;;;13.83;4.27;;;22.00;67.60;;;;;;5067238;28;20654;-73
2023/07/10 02:08:39;;;;;;;3.63;3.33;;;21.90;67.40;;;;;;5061901;28;20634;-74
2023/07/10 02:11:06;;;;;;;6.77;4.40;;;21.90;68.20;;;;;;5057293;28;20662;-74
2023/07/10 02:13:35;;;;;;;2.90;2.67;;;21.80;68.70;;;;;;5056755;28;20627;-74
2023/07/10 02:16:04;;;;;;;3.70;3.43;;;21.90;69.10;;;;;;5063524;28;20696;-74
2023/07/10 02:18:32;;;;;;;3.60;3.30;;;21.90;69.40;;;;;;5068775;28;21257;-74
2023/07/10 02:21:00;;;;;;;3.87;3.40;;;21.90;70.00;;;;;;5067035;28;20685;-74
2023/07/10 02:23:27;;;;;;;6.07;4.10;;;21.90;70.00;;;;;;5067482;28;21273;-74
2023/07/10 02:25:55;;;;;;;3.70;3.30;;;22.00;70.20;;;;;;5065889;28;20676;-74
2023/07/10 02:28:22;;;;;;;5.03;3.47;;;22.00;70.50;;;;;;5068478;28;20655;-74
2023/07/10 02:30:49;;;;;;;4.50;4.10;;;22.00;70.00;;;;;;5067173;28;20655;-73
2023/07/10 02:33:18;;;;;;;4.10;3.50;;;21.90;70.20;;;;;;5063453;28;20665;-73
2023/07/10 02:35:46;;;;;;;11.13;3.40;;;21.90;71.80;;;;;;5068224;28;20706;-74
2023/07/10 02:38:13;;;;;;;3.47;3.17;;;21.90;72.50;;;;;;5067008;28;20653;-74
2023/07/10 02:40:42;;;;;;;4.50;3.60;;;21.80;72.80;;;;;;5065901;28;20658;-73
2023/07/10 02:43:11;;;;;;;3.60;3.33;;;21.80;72.80;;;;;;5064619;28;21015;-74
2023/07/10 02:45:38;;;;;;;3.30;3.10;;;21.90;72.80;;;;;;5060983;28;20756;-73
2023/07/10 02:48:07;;;;;;;5.07;4.53;;;21.80;73.30;;;;;;5066270;28;20680;-74
2023/07/10 02:50:35;;;;;;;3.57;3.27;;;21.90;73.80;;;;;;5057453;28;21559;-73
2023/07/10 02:53:01;;;;;;;3.73;3.43;;;22.00;74.00;;;;;;5061460;28;21194;-73
2023/07/10 02:55:29;;;;;;;5.33;4.10;;;22.00;74.20;;;;;;5060754;28;20654;-73
2023/07/10 02:57:56;;;;;;;5.70;3.50;;;22.20;73.90;;;;;;5068044;28;20655;-74
2023/07/10 03:00:26;;;;;;;4.00;3.37;;;22.10;75.30;;;;;;5066648;28;20658;-74
2023/07/10 03:02:54;;;;;;;5.37;4.20;;;22.10;77.60;;;;;;5066038;28;20730;-74
2023/07/10 03:05:23;;;;;;;4.00;3.70;;;22.00;78.80;;;;;;5066926;28;21189;-74
2023/07/10 03:07:51;;;;;;;3.90;3.50;;;22.00;80.60;;;;;;5063199;28;20998;-74
2023/07/10 03:10:20;;;;;;;5.07;4.30;;;21.90;80.90;;;;;;5064388;28;21077;-74
2023/07/10 03:12:48;;;;;;;6.17;3.57;;;21.90;82.40;;;;;;5059907;28;20635;-74
2023/07/10 03:15:15;;;;;;;5.07;3.57;;;21.90;83.90;;;;;;5062129;28;20625;-74
2023/07/10 03:17:45;;;;;;;4.37;3.90;;;21.90;83.30;;;;;;5059946;28;20650;-74
2023/07/10 03:20:12;;;;;;;4.23;3.90;;;22.10;82.30;;;;;;5066559;28;20628;-74
2023/07/10 03:22:39;;;;;;;3.70;3.43;;;21.90;83.50;;;;;;5067024;28;20639;-74
2023/07/10 03:25:07;;;;;;;4.10;3.77;;;22.00;83.70;;;;;;5067082;28;20623;-74
2023/07/10 03:27:35;;;;;;;4.50;4.10;;;22.00;85.10;;;;;;5063318;28;20786;-74
2023/07/10 03:30:03;;;;;;;4.97;4.47;;;22.00;83.40;;;;;;5063057;28;20658;-74
2023/07/10 03:32:31;;;;;;;6.07;4.57;;;21.90;83.80;;;;;;5049285;28;21200;-74
2023/07/10 03:35:01;;;;;;;4.00;3.60;;;21.90;83.50;;;;;;5066241;28;21009;-74
2023/07/10 03:37:32;;;;;;;4.27;3.47;;;21.90;83.10;;;;;;5060481;28;20749;-74
2023/07/10 03:39:59;;;;;;;6.10;3.97;;;21.90;84.10;;;;;;5062050;28;20616;-74
2023/07/10 03:42:26;;;;;;;4.73;4.33;;;21.80;84.20;;;;;;5058222;28;20729;-74
2023/07/10 03:44:52;;;;;;;4.90;4.50;;;21.90;84.40;;;;;;5064360;28;20726;-74
2023/07/10 03:47:19;;;;;;;5.50;4.47;;;21.90;84.00;;;;;;5059602;28;21058;-74
2023/07/10 03:49:46;;;;;;;4.00;3.70;;;21.90;84.20;;;;;;5066873;28;21207;-74
2023/07/10 03:52:14;;;;;;;5.47;4.20;;;22.00;85.00;;;;;;5061056;28;20758;-74
2023/07/10 03:54:41;;;;;;;3.93;3.63;;;22.00;84.90;;;;;;5062678;28;20620;-74
2023/07/10 03:57:08;;;;;;;4.13;3.53;;;21.90;84.80;;;;;;5056418;28;20666;-74
2023/07/10 03:59:35;;;;;;;5.30;4.20;;;22.00;83.80;;;;;;5069243;28;20637;-73
2023/07/10 04:02:01;;;;;;;5.50;4.13;;;22.10;83.10;;;;;;5069748;28;20658;-74
2023/07/10 04:04:28;;;;;;;4.50;4.20;;;22.10;82.40;;;;;;5071475;28;20629;-74
2023/07/10 04:06:55;;;;;;;4.20;3.70;;;22.10;83.00;;;;;;5066444;28;20650;-73
2023/07/10 04:09:23;;;;;;;6.50;4.17;;;22.10;83.60;;;;;;5068520;28;20623;-74
2023/07/10 04:11:50;;;;;;;6.63;4.07;;;22.20;82.90;;;;;;5068525;28;20665;-74
2023/07/10 04:14:17;;;;;;;6.40;4.60;;;22.20;83.10;;;;;;5064280;28;21189;-74
2023/07/10 04:16:43;;;;;;;4.03;3.63;;;22.20;81.30;;;;;;5068557;28;20658;-74
2023/07/10 04:19:10;;;;;;;3.83;3.53;;;22.20;82.00;;;;;;5068458;28;20630;-74
2023/07/10 04:21:37;;;;;;;4.60;4.20;;;22.20;82.60;;;;;;5071153;28;20667;-74
2023/07/10 04:24:06;;;;;;;4.30;3.90;;;22.30;82.70;;;;;;5063557;28;20648;-74
2023/07/10 04:26:35;;;;;;;4.07;3.57;;;22.20;82.30;;;;;;5069405;28;20656;-74
2023/07/10 04:29:04;;;;;;;4.73;4.20;;;22.30;83.00;;;;;;5070128;28;20624;-74
2023/07/10 04:31:32;;;;;;;3.90;3.50;;;22.30;82.70;;;;;;5070859;28;21011;-74
2023/07/10 04:33:59;;;;;;;3.70;3.40;;;22.30;82.10;;;;;;5070800;28;20978;-74
2023/07/10 04:36:26;;;;;;;5.53;4.97;;;22.30;82.00;;;;;;5070216;28;21294;-75
2023/07/10 04:38:53;;;;;;;4.33;4.03;;;22.20;81.70;;;;;;5057344;28;20685;-73
2023/07/10 04:41:22;;;;;;;5.00;3.47;;;22.20;81.90;;;;;;5063218;28;20644;-74
2023/07/10 04:43:50;;;;;;;4.20;3.87;;;22.30;82.60;;;;;;5064907;28;20752;-73
2023/07/10 04:46:18;;;;;;;3.60;3.30;;;22.30;82.90;;;;;;5070269;28;20642;-73
2023/07/10 04:48:46;;;;;;;4.90;4.07;;;22.30;83.10;;;;;;5065227;28;20627;-75
2023/07/10 04:51:14;;;;;;;5.23;4.73;;;22.30;83.30;;;;;;5062677;28;20661;-74
2023/07/10 04:53:40;;;;;;;4.53;4.10;;;22.30;83.80;;;;;;5065192;28;20994;-74
2023/07/10 04:56:10;;;;;;;4.20;3.57;;;22.30;84.70;;;;;;5064763;28;20656;-74
2023/07/10 04:58:48;;;;;;;3.90;3.50;;;22.30;84.70;;;;;;5070097;28;20782;-72
2023/07/10 05:01:17;;;;;;;3.77;3.40;;;22.20;83.10;;;;;;5070011;28;20643;-72
2023/07/10 05:03:44;;;;;;;3.93;3.53;;;22.20;82.50;;;;;;5067871;28;20751;-74
2023/07/10 05:06:11;;;;;;;5.80;5.20;;;22.30;83.00;;;;;;5064445;28;21022;-74
2023/07/10 05:08:38;;;;;;;4.50;4.00;;;22.30;82.50;;;;;;5069873;28;20643;-73
2023/07/10 05:11:04;;;;;;;3.47;3.17;;;22.70;79.80;;;;;;5067917;28;20657;-74
2023/07/10 05:13:32;;;;;;;4.83;4.43;;;22.90;78.50;;;;;;5056495;28;20636;-72
2023/07/10 05:16:00;;;;;;;3.73;3.43;;;23.10;77.70;;;;;;5058331;28;20672;-75
2023/07/10 05:18:29;;;;;;;4.20;3.80;;;23.20;77.20;;;;;;5065132;28;20683;-73
2023/07/10 05:20:57;;;;;;;4.73;3.57;;;23.10;78.10;;;;;;5060198;28;20687;-73
2023/07/10 05:23:24;;;;;;;4.80;4.30;;;23.10;77.30;;;;;;5062564;28;20644;-73
2023/07/10 05:26:00;;;;;;;6.10;4.60;;;23.20;77.70;;;;;;5066381;28;20658;-74
2023/07/10 05:28:27;;;;;;;4.23;3.57;;;23.20;78.30;;;;;;5068670;28;20637;-73
2023/07/10 05:30:55;;;;;;;4.40;4.00;;;23.20;79.60;;;;;;5067245;28;20653;-73
2023/07/10 05:33:22;;;;;;;5.20;4.53;;;23.40;78.10;;;;;;5069204;28;20643;-74
2023/07/10 05:35:52;;;;;;;5.27;3.80;;;23.50;78.70;;;;;;5068545;28;20655;-74
2023/07/10 05:38:19;;;;;;;4.77;4.37;;;23.60;78.00;;;;;;5069138;28;20670;-74
2023/07/10 05:40:46;;;;;;;4.80;4.40;;;23.60;76.80;;;;;;5068216;28;20651;-74
2023/07/10 05:43:13;;;;;;;4.30;3.90;;;23.80;75.00;;;;;;5069282;28;20617;-74
2023/07/10 05:45:40;;;;;;;4.80;4.10;;;23.80;76.70;;;;;;5068079;28;20649;-74
2023/07/10 05:48:10;;;;;;;4.53;3.93;;;24.00;76.00;;;;;;5063207;28;20637;-74
2023/07/10 05:50:37;;;;;;;4.20;3.80;;;24.20;74.20;;;;;;5060284;28;20659;-74
2023/07/10 05:53:06;;;;;;;4.20;3.90;;;24.40;73.40;;;;;;5063965;28;20640;-73
2023/07/10 05:55:32;;;;;;;4.80;3.67;;;24.30;73.10;;;;;;5056222;28;20685;-71
2023/07/10 05:57:59;;;;;;;3.60;3.40;;;24.20;73.20;;;;;;5058781;28;20656;-71
2023/07/10 06:00:26;;;;;;;6.10;3.10;;;24.10;72.60;;;;;;5053335;28;20641;-72
2023/07/10 06:02:53;;;;;;;4.20;3.80;;;24.20;72.50;;;;;;5058558;28;20960;-72
2023/07/10 06:05:20;;;;;;;4.33;3.93;;;24.30;72.90;;;;;;5059310;28;20630;-72
2023/07/10 06:07:47;;;;;;;5.10;4.63;;;24.30;71.90;;;;;;5059545;28;20652;-72
2023/07/10 06:10:15;;;;;;;4.03;3.63;;;24.40;72.20;;;;;;5066786;28;20983;-72
2023/07/10 06:12:42;;;;;;;5.10;4.60;;;24.50;72.50;;;;;;5060718;28;20722;-72
2023/07/10 06:15:09;;;;;;;3.67;3.37;;;24.60;72.60;;;;;;5063668;28;20620;-72
2023/07/10 06:17:36;;;;;;;6.43;4.40;;;24.60;72.90;;;;;;5068533;28;20660;-72
2023/07/10 06:20:03;;;;;;;3.80;3.30;;;24.70;72.20;;;;;;5058823;28;20726;-72
2023/07/10 06:22:30;;;;;;;4.07;3.67;;;24.80;71.80;;;;;;5067349;28;20634;-72
2023/07/10 06:24:57;;;;;;;4.10;3.63;;;25.00;72.10;;;;;;5061132;28;21224;-72
2023/07/10 06:27:25;;;;;;;4.83;4.37;;;25.00;71.60;;;;;;5066199;28;21656;-73
2023/07/10 06:29:52;;;;;;;4.23;3.90;;;25.20;71.50;;;;;;5061397;28;20632;-73
2023/07/10 06:32:19;;;;;;;4.23;3.90;;;25.40;71.60;;;;;;5064274;28;21002;-73
2023/07/10 06:34:46;;;;;;;3.80;3.50;;;25.50;70.80;;;;;;5056471;28;20633;-73
2023/07/10 06:37:13;;;;;;;4.40;4.10;;;25.40;71.40;;;;;;5067482;28;20656;-73
2023/07/10 06:39:39;;;;;;;4.13;3.63;;;25.40;71.10;;;;;;5060104;28;20673;-73
2023/07/10 06:42:07;;;;;;;3.57;3.27;;;25.50;71.80;;;;;;5059274;28;20642;-73
2023/07/10 06:44:35;;;;;;;4.10;3.53;;;25.60;71.00;;;;;;5053434;28;20669;-73
2023/07/10 06:47:02;;;;;;;4.90;3.70;;;25.80;70.50;;;;;;5066897;28;20659;-73
2023/07/10 06:49:28;;;;;;;3.53;3.23;;;25.90;70.70;;;;;;5063938;28;20642;-73
2023/07/10 06:51:55;;;;;;;5.07;3.60;;;26.10;69.40;;;;;;5067913;28;21237;-77
2023/07/10 06:54:22;;;;;;;3.90;3.13;;;26.20;70.10;;;;;;5064990;28;20638;-75
2023/07/10 06:56:49;;;;;;;3.53;2.97;;;26.50;69.50;;;;;;5066285;28;20662;-75
2023/07/10 06:59:21;;;;;;;4.10;3.70;;;26.50;69.10;;;;;;5063607;28;20665;-75
2023/07/10 07:01:49;;;;;;;3.90;3.60;;;26.50;68.90;;;;;;5059962;28;20750;-76
2023/07/10 07:04:16;;;;;;;3.87;3.50;;;26.40;68.60;;;;;;5063368;28;20640;-75
2023/07/10 07:06:43;;;;;;;3.93;3.37;;;26.50;68.90;;;;;;5057886;28;20660;-75
2023/07/10 07:09:25;;;;;;;5.10;4.47;;;26.60;69.10;;;;;;5058179;28;20655;-76
2023/07/10 07:15:16;;;;;;;3.50;3.20;;;26.50;67.50;;;;;;4886124;29;21396;-76
2023/07/10 07:17:44;;;;;;;4.10;3.80;;;26.70;68.30;;;;;;5049678;28;20632;-75
2023/07/10 07:20:12;;;;;;;3.90;3.60;;;26.70;67.40;;;;;;5054198;28;20621;-76
2023/07/10 07:22:39;;;;;;;3.67;3.37;;;26.70;67.40;;;;;;5060721;28;20638;-75
2023/07/10 07:25:06;;;;;;;3.63;3.43;;;26.70;68.30;;;;;;5055438;28;20739;-75
2023/07/10 07:27:33;;;;;;;3.30;3.10;;;26.70;68.20;;;;;;5059421;28;20632;-75
2023/07/10 07:30:05;;;;;;;3.90;3.60;;;26.60;68.10;;;;;;5057654;28;20728;-76
2023/07/10 07:32:31;;;;;;;5.90;4.23;;;26.60;68.10;;;;;;5057181;28;20633;-76
2023/07/10 07:34:59;;;;;;;3.90;3.30;;;26.50;68.70;;;;;;5054649;28;20626;-76
2023/07/10 07:37:26;;;;;;;3.27;3.07;;;26.50;69.60;;;;;;5059300;28;20763;-76
2023/07/10 07:39:54;;;;;;;3.93;3.60;;;26.60;69.60;;;;;;5056526;28;20696;-76
2023/07/10 07:42:21;;;;;;;3.80;3.37;;;26.80;68.70;;;;;;5059462;28;20652;-76
2023/07/10 07:44:51;;;;;;;3.23;2.90;;;27.00;68.50;;;;;;5057915;28;21664;-76
2023/07/10 07:47:20;;;;;;;3.53;3.23;;;26.90;68.80;;;;;;5060370;28;20657;-75
2023/07/10 07:49:47;;;;;;;3.83;3.43;;;26.80;67.90;;;;;;5060325;28;20690;-76
2023/07/10 07:52:18;;;;;;;4.47;3.00;;;26.70;68.60;;;;;;5057729;28;20651;-76
2023/07/10 07:54:45;;;;;;;3.40;3.20;;;27.00;69.40;;;;;;5060336;28;21055;-75
2023/07/10 07:57:13;;;;;;;3.50;3.20;;;27.10;68.00;;;;;;5058804;28;20753;-76
2023/07/10 07:59:39;;;;;;;4.43;3.37;;;27.20;68.20;;;;;;5059648;28;20668;-77
2023/07/10 08:02:09;;;;;;;3.20;3.00;;;27.30;66.90;;;;;;5056880;28;20677;-75
2023/07/10 08:04:36;;;;;;;3.20;3.00;;;27.40;67.80;;;;;;5056050;28;20985;-75
2023/07/10 08:07:06;;;;;;;2.43;2.23;;;27.40;67.10;;;;;;5059939;28;20654;-75
2023/07/10 08:09:37;;;;;;;3.83;3.20;;;27.50;67.40;;;;;;5054883;28;20640;-75
2023/07/10 08:12:05;;;;;;;3.17;2.90;;;27.60;67.30;;;;;;5059277;28;20657;-76
2023/07/10 08:14:32;;;;;;;2.97;2.77;;;27.70;67.40;;;;;;5056979;28;20632;-77
2023/07/10 08:16:59;;;;;;;2.77;2.57;;;27.80;67.20;;;;;;5065337;28;20708;-76
2023/07/10 08:19:25;;;;;;;3.40;3.10;;;27.80;65.30;;;;;;5064449;28;20746;-76
2023/07/10 08:21:54;;;;;;;5.23;4.07;;;27.90;64.70;;;;;;5061306;28;21229;-76
2023/07/10 08:24:21;;;;;;;3.50;3.20;;;27.80;65.20;;;;;;5062974;28;21622;-75
2023/07/10 08:26:49;;;;;;;4.43;3.50;;;27.60;64.80;;;;;;5065890;28;21547;-76
2023/07/10 08:29:24;;;;;;;3.50;3.20;;;27.40;66.10;;;;;;5065996;28;20749;-76
2023/07/10 08:31:53;;;;;;;7.57;3.47;;;27.60;65.90;;;;;;5063618;28;20653;-76
2023/07/10 08:34:20;;;;;;;4.07;3.73;;;27.60;66.00;;;;;;5050896;28;20645;-75
2023/07/10 08:36:47;;;;;;;4.07;3.60;;;27.70;65.80;;;;;;5061777;28;20718;-76
2023/07/10 08:39:14;;;;;;;3.93;3.50;;;27.60;66.00;;;;;;5059895;28;21098;-73
2023/07/10 08:41:42;;;;;;;3.47;3.27;;;27.70;67.30;;;;;;5058290;28;20660;-74
2023/07/10 08:44:12;;;;;;;3.10;2.90;;;27.90;66.80;;;;;;5057852;28;20684;-74
2023/07/10 08:46:39;;;;;;;3.37;3.17;;;28.00;65.80;;;;;;5062798;28;20659;-74
2023/07/10 08:49:15;;;;;;;3.20;2.77;;;28.20;64.70;;;;;;5061971;28;21116;-74
2023/07/10 08:52:06;;;;;;;3.93;3.63;;;28.20;66.10;;;;;;5060694;28;20648;-74
2023/07/10 08:54:33;;;;;;;5.03;3.90;;;28.40;64.30;;;;;;5066768;28;20666;-74
2023/07/10 08:57:12;;;;;;;3.50;3.20;;;28.40;64.90;;;;;;5066164;28;20741;-77
2023/07/10 08:59:49;;;;;;;3.30;3.10;;;28.60;63.50;;;;;;5062405;28;21189;-76
2023/07/10 09:02:21;;;;;;;3.63;3.33;;;28.60;63.20;;;;;;5063292;28;20659;-76
2023/07/10 09:04:50;;;;;;;4.00;3.67;;;28.70;62.60;;;;;;5058807;28;21200;-76
2023/07/10 09:07:18;;;;;;;3.67;3.10;;;28.90;63.10;;;;;;5062279;28;21205;-76
2023/07/10 09:09:49;;;;;;;3.73;3.40;;;29.20;61.30;;;;;;5065207;28;20663;-76
2023/07/10 09:12:22;;;;;;;3.70;3.30;;;29.10;62.20;;;;;;5065060;28;20740;-76
2023/07/10 09:14:55;;;;;;;3.00;2.80;;;29.30;62.40;;;;;;5068349;28;20759;-77
2023/07/10 09:17:30;;;;;;;3.00;2.80;;;29.40;60.60;;;;;;5066342;28;21282;-76
2023/07/10 09:20:03;;;;;;;3.70;3.40;;;29.40;61.10;;;;;;5069140;28;20650;-76
2023/07/10 09:22:32;;;;;;;3.30;2.93;;;29.60;60.30;;;;;;5057626;28;20654;-77
2023/07/10 09:24:59;;;;;;;3.90;3.60;;;29.50;61.20;;;;;;5062741;28;20634;-77
2023/07/10 09:27:26;;;;;;;3.50;3.20;;;29.50;62.50;;;;;;5067870;28;20649;-76
2023/07/10 09:29:56;;;;;;;4.00;3.70;;;29.60;61.80;;;;;;5067793;28;20632;-76
2023/07/10 09:32:23;;;;;;;3.70;3.40;;;29.40;62.10;;;;;;5068698;28;20649;-77
2023/07/10 09:34:53;;;;;;;4.60;3.83;;;29.30;63.50;;;;;;5062353;28;20641;-76
2023/07/10 09:37:22;;;;;;;4.33;3.30;;;29.00;63.60;;;;;;5067519;28;20711;-76
2023/07/10 09:39:49;;;;;;;4.17;3.83;;;29.00;64.60;;;;;;5060038;28;20669;-77
2023/07/10 09:42:21;;;;;;;4.20;3.90;;;29.20;64.90;;;;;;5062160;28;20744;-76
2023/07/10 09:44:52;;;;;;;4.30;3.90;;;29.20;63.90;;;;;;5063884;28;20625;-76
2023/07/10 09:47:21;;;;;;;4.23;3.90;;;29.30;64.90;;;;;;5062045;28;20661;-76
2023/07/10 09:49:52;;;;;;;5.63;4.77;;;29.70;64.30;;;;;;5065873;28;20622;-76
2023/07/10 09:52:24;;;;;;;4.27;3.87;;;29.60;64.80;;;;;;5066108;28;20650;-76
2023/07/10 09:55:00;;;;;;;3.90;3.60;;;29.70;65.20;;;;;;5063892;28;20635;-76
2023/07/10 09:57:27;;;;;;;4.70;4.30;;;29.80;64.50;;;;;;5068418;28;20644;-76
2023/07/10 09:59:56;;;;;;;4.00;3.70;;;29.80;64.30;;;;;;5059383;28;20648;-76
2023/07/10 10:02:26;;;;;;;4.47;4.07;;;30.00;63.80;;;;;;5067985;28;20752;-75
2023/07/10 10:05:00;;;;;;;4.10;3.70;;;30.20;63.80;;;;;;5067901;28;20610;-75
2023/07/10 10:07:36;;;;;;;4.20;3.80;;;30.30;63.10;;;;;;5068046;28;20637;-75
2023/07/10 10:10:29;;;;;;;5.03;4.53;;;30.50;62.60;;;;;;5057350;28;20621;-75
2023/07/10 10:13:03;;;;;;;4.20;3.90;;;30.60;61.90;;;;;;5046870;28;20730;-76
2023/07/10 10:15:39;;;;;;;4.17;3.80;;;30.70;61.20;;;;;;5059984;28;20706;-76
2023/07/10 10:18:16;;;;;;;5.00;4.03;;;30.50;61.10;;;;;;5061160;28;20635;-76
2023/07/10 10:20:44;;;;;;;4.13;3.70;;;30.40;61.00;;;;;;5066270;28;20671;-75
2023/07/10 10:23:28;;;;;;;5.90;3.97;;;30.30;60.90;;;;;;5068119;28;21229;-74
2023/07/10 10:26:08;;;;;;;3.47;3.17;;;30.30;60.90;;;;;;5061738;28;20784;-74
2023/07/10 10:28:44;;;;;;;4.63;4.23;;;30.40;59.60;;;;;;5068228;28;20625;-74
2023/07/10 10:31:17;;;;;;;4.10;3.70;;;30.40;59.80;;;;;;5066666;28;20651;-76
2023/07/10 10:33:58;;;;;;;3.87;3.57;;;30.70;61.00;;;;;;5064462;28;20614;-75
2023/07/10 10:36:33;;;;;;;3.90;3.60;;;30.80;59.60;;;;;;5064061;28;20653;-75
2023/07/10 10:39:07;;;;;;;4.20;3.90;;;31.00;59.50;;;;;;5063830;28;20657;-75
2023/07/10 10:41:46;;;;;;;3.93;3.60;;;31.00;59.00;;;;;;5055610;28;20655;-74
2023/07/10 10:44:26;;;;;;;4.47;4.07;;;30.90;58.90;;;;;;5067804;28;20686;-74
2023/07/10 10:47:08;;;;;;;4.07;3.77;;;30.90;59.20;;;;;;5067879;28;21018;-74
2023/07/10 10:50:00;;;;;;;4.77;4.20;;;30.70;59.00;;;;;;5065799;28;20624;-75
2023/07/10 10:52:35;;;;;;;4.80;4.37;;;30.80;59.70;;;;;;5063647;28;20649;-75
2023/07/10 10:55:25;;;;;;;4.70;4.40;;;31.00;58.80;;;;;;5063473;28;20728;-76
2023/07/10 10:58:04;;;;;;;4.20;3.80;;;30.80;58.70;;;;;;5064633;28;20617;-75
2023/07/10 11:00:45;;;;;;;4.37;4.07;;;30.60;58.60;;;;;;5057167;28;21012;-75
2023/07/10 11:03:26;;;;;;;4.77;4.37;;;30.60;59.60;;;;;;5063490;28;21438;-76
2023/07/10 11:05:59;;;;;;;5.80;4.40;;;30.60;59.20;;;;;;5052657;28;20657;-76
2023/07/10 11:08:31;;;;;;;4.40;4.10;;;30.80;59.90;;;;;;5056040;28;20637;-76
2023/07/10 11:10:58;;;;;;;4.93;4.53;;;31.20;58.00;;;;;;5062152;28;20664;-76
2023/07/10 11:13:31;;;;;;;3.80;3.60;;;31.20;59.10;;;;;;5056061;28;20633;-75
2023/07/10 11:15:58;;;;;;;4.60;4.20;;;31.10;58.00;;;;;;5063312;28;20742;-76
2023/07/10 11:18:26;;;;;;;4.00;3.70;;;31.20;57.90;;;;;;5062739;28;21046;-75
2023/07/10 11:20:53;;;;;;;4.27;3.97;;;31.50;58.10;;;;;;5062149;28;20676;-75
2023/07/10 11:23:35;;;;;;;4.70;4.30;;;31.80;58.30;;;;;;5062268;28;21260;-75
2023/07/10 11:26:04;;;;;;;4.17;3.80;;;32.00;57.60;;;;;;5061390;28;20660;-76
2023/07/10 11:28:32;;;;;;;4.50;4.10;;;32.10;57.30;;;;;;5059820;28;20625;-75
2023/07/10 11:31:28;;;;;;;3.67;3.37;;;32.70;56.00;;;;;;5061991;28;20657;-76
2023/07/10 11:34:28;;;;;;;4.17;3.87;;;32.90;55.70;;;;;;5065271;28;20621;-76
2023/07/10 11:36:55;;;;;;;4.10;3.70;;;32.30;54.90;;;;;;5058699;28;21293;-76
2023/07/10 11:39:31;;;;;;;4.27;3.97;;;32.20;55.80;;;;;;5058790;28;21225;-75
2023/07/10 11:42:16;;;;;;;3.93;3.40;;;32.20;56.60;;;;;;5056062;28;20652;-76
2023/07/10 11:44:46;;;;;;;4.10;3.80;;;32.20;55.00;;;;;;5061137;28;20629;-76
2023/07/10 11:47:23;;;;;;;4.00;3.70;;;32.80;54.50;;;;;;5063504;28;20769;-76
2023/07/10 11:50:22;;;;;;;4.17;3.77;;;33.20;53.50;;;;;;5062690;28;20698;-76
2023/07/10 11:53:07;;;;;;;4.93;4.50;;;33.70;53.50;;;;;;5053484;28;20623;-76
2023/07/10 11:55:43;;;;;;;3.70;3.40;;;34.30;51.20;;;;;;5066220;28;21171;-76
2023/07/10 11:58:28;;;;;;;3.60;3.30;;;35.00;51.00;;;;;;5063116;28;20950;-76
2023/07/10 12:01:04;;;;;;;3.40;3.20;;;34.90;50.10;;;;;;5055006;28;20683;-76
2023/07/10 12:03:34;;;;;;;3.87;3.47;;;35.60;49.90;;;;;;5060915;28;20686;-76
2023/07/10 12:06:01;;;;;;;4.67;3.63;;;36.10;46.70;;;;;;5062550;28;20748;-76
2023/07/10 12:08:30;;;;;;;2.30;2.20;;;36.40;43.30;;;;;;5064123;28;20723;-76
2023/07/10 12:10:59;;;;;;;3.83;2.93;;;36.70;39.30;;;;;;5059232;28;21081;-74
2023/07/10 12:13:30;;;;;;;3.63;3.13;;;37.20;38.40;;;;;;5065599;28;20631;-76
2023/07/10 12:15:58;;;;;;;2.63;2.50;;;37.40;37.80;;;;;;5059864;28;20654;-76
2023/07/10 12:18:30;;;;;;;3.03;2.80;;;37.40;38.20;;;;;;5064256;28;21048;-76
2023/07/10 12:20:59;;;;;;;3.00;2.80;;;38.20;37.70;;;;;;5064238;28;21251;-77
2023/07/10 12:23:26;;;;;;;4.07;3.67;;;37.50;37.20;;;;;;5069013;28;20628;-76
2023/07/10 12:25:56;;;;;;;2.47;2.27;;;37.50;39.60;;;;;;5070136;28;20648;-76
2023/07/10 12:28:26;;;;;;;3.60;3.30;;;37.30;41.80;;;;;;5070552;28;21208;-76
2023/07/10 12:30:55;;;;;;;3.10;2.90;;;37.40;42.90;;;;;;5060742;28;20647;-76
2023/07/10 12:33:39;;;;;;;2.70;2.50;;;37.40;40.90;;;;;;5068922;28;20623;-75
2023/07/10 12:36:14;;;;;;;2.93;2.73;;;37.70;39.10;;;;;;5069801;28;20644;-76
2023/07/10 12:38:41;;;;;;;3.10;2.80;;;38.00;39.60;;;;;;5067995;28;20676;-76
2023/07/10 12:41:08;;;;;;;2.53;2.33;;;37.20;38.30;;;;;;5064316;28;20661;-76
2023/07/10 12:43:37;;;;;;;2.83;2.63;;;36.90;38.70;;;;;;5066861;28;20624;-76
2023/07/10 12:46:14;;;;;;;3.40;2.90;;;37.00;38.40;;;;;;5069376;28;20648;-76
2023/07/10 12:48:42;;;;;;;3.40;2.50;;;37.30;40.40;;;;;;5062309;28;20629;-76
2023/07/10 12:51:16;;;;;;;2.57;2.33;;;37.90;39.90;;;;;;5066255;28;20641;-75
2023/07/10 12:53:44;;;;;;;3.63;3.07;;;38.80;39.90;;;;;;5062645;28;20623;-75
2023/07/10 12:56:25;;;;;;;2.80;2.60;;;39.10;38.60;;;;;;5063418;28;20659;-76
2023/07/10 12:58:54;;;;;;;2.90;2.70;;;39.10;35.70;;;;;;5058000;28;20203;-75
2023/07/10 13:01:27;;;;;;;2.60;2.40;;;39.40;37.10;;;;;;5065265;28;20288;-76
2023/07/10 13:04:07;;;;;;;3.05;2.85;;;39.90;36.00;;;;;;5069386;28;20211;-76
2023/07/10 13:06:34;;;;;;;2.57;2.37;;;39.00;35.40;;;;;;5064219;28;20336;-75